Time;durP1;ratioP1;P1;durP2;ratioP2;P2;SDS_P1;SDS_P2;PMS_P1;PMS_P2;Temp;Humidity;BMP_temperature;BMP_pressure;BME280_temperature;BME280_humidity;BME280_pressure;Samples;Min_cycle;Max_cycle;Signal;HPM_P1;HPM_P2
2022/11/24 04:01:48;;;;;;;;;;;16.90;50.60;;;;;;5284083;23;46472;-61
2022/11/24 04:04:13;;;;;;;;;;;16.90;50.70;;;;;;4913916;28;45198;-60
2022/11/24 04:06:39;;;;;;;;;;;16.90;50.70;;;;;;4914323;28;45613;-60
2022/11/24 04:09:04;;;;;;;;;;;16.90;50.70;;;;;;4916878;28;45709;-60
2022/11/24 04:14:14;;;;;;;;;;;16.90;50.70;;;;;;4916564;28;45690;-63
2022/11/24 04:16:39;;;;;;;;;;;16.90;50.70;;;;;;4904209;28;46016;-60
2022/11/24 04:19:05;;;;;;;;;;;16.80;50.70;;;;;;4916884;28;45315;-63
2022/11/24 04:21:30;;;;;;;;;;;16.80;50.80;;;;;;4910320;28;45020;-59
2022/11/24 04:23:56;;;;;;;;;;;16.80;50.80;;;;;;4912619;28;45688;-61
2022/11/24 04:26:22;;;;;;;;;;;16.80;50.80;;;;;;4915467;28;46134;-62
2022/11/24 04:28:47;;;;;;;;;;;16.80;51.40;;;;;;4895036;28;45548;-60
2022/11/24 04:31:13;;;;;;;;;;;16.80;50.80;;;;;;4910099;28;45473;-59
2022/11/24 04:33:38;;;;;;;;;;;16.80;50.80;;;;;;4910171;28;45066;-58
2022/11/24 04:36:04;;;;;;;;;;;16.80;50.80;;;;;;4916641;28;46009;-61
2022/11/24 04:38:29;;;;;;;;;;;16.80;50.80;;;;;;4917789;28;45283;-61
2022/11/24 04:40:55;;;;;;;;;;;16.80;50.80;;;;;;4911406;28;44857;-60
2022/11/24 04:43:20;;;;;;;;;;;16.80;50.80;;;;;;4904521;28;45428;-60
2022/11/24 04:45:46;;;;;;;;;;;16.80;50.80;;;;;;4913819;28;46121;-61
2022/11/24 04:48:11;;;;;;;;;;;16.70;50.80;;;;;;4905586;28;44977;-62
2022/11/24 04:50:37;;;;;;;;;;;16.80;50.80;;;;;;4906300;28;45417;-61
2022/11/24 04:53:02;;;;;;;;;;;16.70;50.80;;;;;;4904317;28;44914;-61
2022/11/24 04:55:28;;;;;;;;;;;16.70;50.70;;;;;;4919935;28;45474;-59
2022/11/24 04:57:53;;;;;;;;;;;16.80;50.80;;;;;;4913316;28;44656;-61
2022/11/24 05:00:19;;;;;;;;;;;16.70;50.70;;;;;;4917164;28;44826;-59
2022/11/24 05:02:44;;;;;;;;;;;16.70;50.80;;;;;;4911392;28;45603;-60
2022/11/24 05:05:10;;;;;;;;;;;16.70;50.80;;;;;;4917539;28;46137;-61
2022/11/24 05:07:35;;;;;;;;;;;16.70;50.80;;;;;;4911059;28;45332;-62
2022/11/24 05:12:52;;;;;;;;;;;16.70;50.80;;;;;;4893603;28;45701;-61
2022/11/24 05:15:17;;;;;;;;;;;16.70;50.80;;;;;;4916047;28;46176;-61
2022/11/24 05:17:43;;;;;;;;;;;16.70;50.90;;;;;;4911992;28;44984;-61
2022/11/24 05:20:08;;;;;;;;;;;16.70;50.80;;;;;;4915131;28;45504;-60
2022/11/24 05:22:34;;;;;;;;;;;16.70;50.80;;;;;;4907390;28;44754;-58
2022/11/24 05:25:00;;;;;;;;;;;16.60;50.80;;;;;;4906352;28;46091;-63
2022/11/24 05:27:26;;;;;;;;;;;16.60;50.80;;;;;;4909640;28;45123;-58
2022/11/24 05:29:51;;;;;;;;;;;16.60;50.80;;;;;;4915045;28;45584;-58
2022/11/24 05:32:16;;;;;;;;;;;16.60;50.80;;;;;;4908227;28;45360;-61
2022/11/24 05:34:42;;;;;;;;;;;16.60;50.90;;;;;;4906724;28;45884;-63
2022/11/24 05:37:07;;;;;;;;;;;16.60;50.80;;;;;;4911085;28;44791;-61
2022/11/24 05:39:33;;;;;;;;;;;16.60;50.90;;;;;;4912636;28;45464;-62
2022/11/24 05:42:39;;;;;;;;;;;16.60;50.90;;;;;;4909168;28;45280;-61
2022/11/24 05:44:45;;;;;;;;;;;16.60;50.80;;;;;;4915257;28;47319;-59
2022/11/24 05:47:11;;;;;;;;;;;16.60;50.90;;;;;;4913697;28;45450;-62
2022/11/24 05:49:36;;;;;;;;;;;16.60;50.80;;;;;;4910636;28;45182;-57
2022/11/24 05:52:01;;;;;;;;;;;16.60;50.80;;;;;;4910194;28;45793;-61
2022/11/24 05:54:27;;;;;;;;;;;16.60;50.90;;;;;;4914051;28;46150;-57
2022/11/24 05:56:52;;;;;;;;;;;16.60;50.90;;;;;;4914127;28;45473;-62
2022/11/24 05:59:18;;;;;;;;;;;16.50;50.90;;;;;;4917115;28;45510;-60
2022/11/24 06:01:43;;;;;;;;;;;16.50;51.50;;;;;;4907625;28;46342;-60
2022/11/24 06:04:09;;;;;;;;;;;16.60;50.90;;;;;;4913181;28;45979;-60
2022/11/24 06:06:34;;;;;;;;;;;16.50;50.90;;;;;;4903834;28;45480;-62
2022/11/24 06:09:00;;;;;;;;;;;16.50;50.90;;;;;;4918263;28;45569;-60
2022/11/24 06:11:25;;;;;;;;;;;16.50;50.90;;;;;;4911697;28;45383;-60
2022/11/24 06:13:51;;;;;;;;;;;16.50;50.90;;;;;;4915285;28;46066;-62
2022/11/24 06:16:16;;;;;;;;;;;16.50;50.90;;;;;;4907623;28;45419;-60
2022/11/24 06:18:41;;;;;;;;;;;16.50;50.90;;;;;;4907372;28;45613;-64
2022/11/24 06:21:07;;;;;;;;;;;16.50;50.90;;;;;;4913590;28;45424;-62
2022/11/24 06:23:32;;;;;;;;;;;16.50;50.90;;;;;;4913343;28;47144;-61
2022/11/24 06:25:58;;;;;;;;;;;16.50;50.90;;;;;;4910108;28;45130;-57
2022/11/24 06:28:24;;;;;;;;;;;16.50;50.90;;;;;;4914022;28;45209;-61
2022/11/24 06:30:49;;;;;;;;;;;16.50;50.90;;;;;;4910647;28;45273;-60
2022/11/24 06:33:15;;;;;;;;;;;16.50;50.90;;;;;;4915810;28;45201;-62
2022/11/24 06:35:40;;;;;;;;;;;16.50;50.90;;;;;;4905393;28;44949;-61
2022/11/24 06:38:06;;;;;;;;;;;16.50;50.90;;;;;;4915639;28;45149;-59
2022/11/24 06:40:31;;;;;;;;;;;16.50;50.90;;;;;;4913488;28;45187;-61
2022/11/24 06:42:57;;;;;;;;;;;16.50;50.90;;;;;;4897170;28;47046;-67
2022/11/24 06:45:22;;;;;;;;;;;16.40;50.90;;;;;;4915766;28;45507;-61
2022/11/24 06:47:48;;;;;;;;;;;16.40;50.90;;;;;;4910571;28;45294;-61
2022/11/24 06:50:13;;;;;;;;;;;16.40;50.90;;;;;;4918042;28;45524;-61
2022/11/24 06:52:39;;;;;;;;;;;16.40;50.90;;;;;;4910760;28;45896;-60
2022/11/24 06:55:05;;;;;;;;;;;16.40;50.90;;;;;;4917994;28;44755;-61
2022/11/24 06:57:31;;;;;;;;;;;16.40;51.00;;;;;;4907867;28;45617;-60
2022/11/24 06:59:57;;;;;;;;;;;16.40;51.00;;;;;;4915240;28;45184;-61
2022/11/24 07:02:22;;;;;;;;;;;16.40;51.00;;;;;;4911927;28;45220;-61
2022/11/24 07:04:48;;;;;;;;;;;16.40;50.90;;;;;;4910021;28;44966;-60
2022/11/24 07:07:13;;;;;;;;;;;16.40;50.80;;;;;;4912433;28;45442;-59
2022/11/24 07:09:39;;;;;;;;;;;16.30;50.80;;;;;;4914474;28;45764;-56
2022/11/24 07:12:04;;;;;;;;;;;16.20;50.90;;;;;;4908805;28;46048;-60
2022/11/24 07:14:30;;;;;;;;;;;16.20;51.10;;;;;;4906210;28;45476;-60
2022/11/24 07:16:56;;;;;;;;;;;16.30;51.30;;;;;;4913981;28;44733;-57
2022/11/24 07:19:21;;;;;;;;;;;16.40;51.10;;;;;;4912755;28;45433;-58
2022/11/24 07:21:47;;;;;;;;;;;16.50;50.90;;;;;;4913694;28;45145;-59
2022/11/24 07:24:12;;;;;;;;;;;16.70;50.50;;;;;;4909930;28;45403;-59
2022/11/24 07:26:38;;;;;;;;;;;16.90;50.20;;;;;;4908250;28;45523;-57
2022/11/24 07:29:04;;;;;;;;;;;17.10;50.00;;;;;;4916732;28;45250;-58
2022/11/24 07:31:29;;;;;;;;;;;17.20;49.70;;;;;;4910685;28;46185;-60
2022/11/24 07:33:55;;;;;;;;;;;17.40;49.50;;;;;;4908408;28;45242;-60
2022/11/24 07:36:21;;;;;;;;;;;17.60;49.30;;;;;;4906473;28;45679;-58
2022/11/24 07:38:46;;;;;;;;;;;17.70;49.00;;;;;;4915357;28;45648;-56
2022/11/24 07:41:12;;;;;;;;;;;17.90;48.80;;;;;;4898425;28;46280;-58
2022/11/24 07:43:37;;;;;;;;;;;18.00;48.60;;;;;;4910043;28;45508;-60
2022/11/24 07:46:03;;;;;;;;;;;18.20;48.50;;;;;;4909514;28;45214;-59
2022/11/24 07:48:29;;;;;;;;;;;18.30;48.40;;;;;;4914578;28;45188;-57
2022/11/24 07:50:57;;;;;;;;;;;18.50;48.20;;;;;;4912551;28;45979;-58
2022/11/24 07:53:22;;;;;;;;;;;18.60;48.10;;;;;;4919092;28;45425;-60
2022/11/24 07:55:51;;;;;;;;;;;18.80;47.90;;;;;;4905418;28;45490;-58
2022/11/24 07:58:17;;;;;;;;;;;18.90;47.70;;;;;;4914123;28;44992;-60
2022/11/24 08:00:42;;;;;;;;;;;19.00;47.60;;;;;;4914237;28;46776;-60
2022/11/24 08:03:08;;;;;;;;;;;19.20;47.50;;;;;;4909889;28;44963;-59
2022/11/24 08:05:33;;;;;;;;;;;19.30;47.40;;;;;;4909592;28;44900;-59
2022/11/24 08:07:59;;;;;;;;;;;19.50;47.30;;;;;;4913117;28;44909;-60
2022/11/24 08:10:25;;;;;;;;;;;19.60;47.10;;;;;;4910128;28;45583;-59
2022/11/24 08:12:50;;;;;;;;;;;19.70;46.90;;;;;;4906620;28;46379;-60
2022/11/24 08:15:16;;;;;;;;;;;19.90;46.80;;;;;;4892250;28;45269;-57
2022/11/24 08:17:41;;;;;;;;;;;20.00;46.70;;;;;;4908835;28;45136;-63
2022/11/24 08:20:07;;;;;;;;;;;20.10;46.50;;;;;;4914989;28;46091;-63
2022/11/24 08:22:33;;;;;;;;;;;20.20;46.40;;;;;;4913036;28;45069;-60
2022/11/24 08:24:58;;;;;;;;;;;20.40;46.30;;;;;;4911551;28;44671;-64
2022/11/24 08:27:24;;;;;;;;;;;20.50;46.20;;;;;;4913026;28;45427;-60
2022/11/24 08:29:49;;;;;;;;;;;20.60;46.20;;;;;;4916432;28;47015;-62
2022/11/24 08:32:15;;;;;;;;;;;20.60;46.10;;;;;;4914097;28;45589;-60
2022/11/24 08:34:40;;;;;;;;;;;20.70;46.10;;;;;;4909785;28;45429;-61
2022/11/24 08:37:06;;;;;;;;;;;20.80;46.00;;;;;;4913425;28;45499;-61
2022/11/24 08:39:31;;;;;;;;;;;20.90;45.90;;;;;;4919348;28;46170;-61
2022/11/24 08:41:57;;;;;;;;;;;21.00;45.90;;;;;;4913814;28;45348;-61
2022/11/24 08:44:22;;;;;;;;;;;21.10;45.80;;;;;;4914976;28;45253;-61
2022/11/24 08:46:48;;;;;;;;;;;21.20;45.80;;;;;;4913566;28;44833;-60
2022/11/24 08:49:14;;;;;;;;;;;21.20;45.60;;;;;;4913098;28;46365;-60
2022/11/24 08:51:40;;;;;;;;;;;21.30;45.60;;;;;;4918607;28;45157;-61
2022/11/24 08:54:05;;;;;;;;;;;21.40;45.50;;;;;;4909777;28;44911;-62
2022/11/24 08:56:31;;;;;;;;;;;21.50;45.40;;;;;;4917191;28;45490;-61
2022/11/24 08:58:56;;;;;;;;;;;21.50;45.30;;;;;;4915129;28;46032;-60
2022/11/24 09:01:22;;;;;;;;;;;21.60;45.20;;;;;;4909046;28;45381;-61
2022/11/24 09:03:48;;;;;;;;;;;21.70;45.20;;;;;;4917097;28;45452;-58
2022/11/24 09:06:13;;;;;;;;;;;21.80;45.10;;;;;;4915583;28;45423;-61
2022/11/24 09:08:39;;;;;;;;;;;21.80;45.00;;;;;;4907524;28;45957;-60
2022/11/24 09:11:08;;;;;;;;;;;21.90;45.00;;;;;;4917660;28;45499;-62
2022/11/24 09:13:34;;;;;;;;;;;22.00;44.90;;;;;;4911538;28;45229;-60
2022/11/24 09:16:03;;;;;;;;;;;22.10;44.90;;;;;;4917920;28;45983;-61
2022/11/24 09:18:28;;;;;;;;;;;22.20;44.70;;;;;;4909564;28;47051;-62
2022/11/24 09:20:57;;;;;;;;;;;22.30;44.70;;;;;;4907166;28;44933;-58
2022/11/24 09:23:22;;;;;;;;;;;22.30;44.60;;;;;;4911940;28;45648;-63
2022/11/24 09:25:48;;;;;;;;;;;22.40;44.60;;;;;;4897288;28;44931;-60
2022/11/24 09:28:13;;;;;;;;;;;22.40;44.50;;;;;;4913723;28;46754;-60
2022/11/24 09:30:39;;;;;;;;;;;22.50;44.50;;;;;;4916193;28;45264;-58
2022/11/24 09:33:04;;;;;;;;;;;22.50;44.40;;;;;;4915993;28;44647;-58
2022/11/24 09:35:30;;;;;;;;;;;22.60;44.40;;;;;;4906208;28;45425;-62
2022/11/24 09:37:56;;;;;;;;;;;22.60;44.30;;;;;;4920489;28;47646;-61
2022/11/24 09:40:21;;;;;;;;;;;22.70;44.20;;;;;;4915647;28;45147;-62
2022/11/24 09:42:51;;;;;;;;;;;22.80;44.20;;;;;;4909804;28;45523;-62
2022/11/24 09:45:21;;;;;;;;;;;22.80;44.30;;;;;;4895330;28;45769;-62
2022/11/24 09:47:54;;;;;;;;;;;22.90;44.70;;;;;;4916319;28;45899;-61
2022/11/24 09:50:21;;;;;;;;;;;23.00;44.00;;;;;;4898322;28;44655;-61
2022/11/24 09:52:50;;;;;;;;;;;23.00;44.00;;;;;;4901151;28;45168;-61
2022/11/24 09:55:21;;;;;;;;;;;23.10;43.90;;;;;;4910285;28;45470;-61
2022/11/24 09:57:48;;;;;;;;;;;23.10;43.80;;;;;;4920445;28;45979;-61
2022/11/24 10:00:13;;;;;;;;;;;23.20;43.80;;;;;;4892886;28;45792;-62
2022/11/24 10:02:39;;;;;;;;;;;23.20;43.80;;;;;;4910678;28;45210;-62
2022/11/24 10:05:04;;;;;;;;;;;23.30;43.70;;;;;;4896136;28;45643;-61
2022/11/24 10:07:32;;;;;;;;;;;23.30;43.80;;;;;;4918649;28;45987;-61
2022/11/24 10:10:17;;;;;;;;;;;23.30;43.70;;;;;;4896655;28;44881;-62
2022/11/24 10:12:52;;;;;;;;;;;23.40;43.60;;;;;;4897222;28;44962;-62
2022/11/24 10:15:30;;;;;;;;;;;23.40;43.60;;;;;;4901483;28;45566;-61
2022/11/24 10:18:01;;;;;;;;;;;23.40;43.50;;;;;;4922280;28;46218;-62
2022/11/24 10:20:26;;;;;;;;;;;23.50;43.50;;;;;;4893765;28;45313;-62
2022/11/24 10:22:52;;;;;;;;;;;23.50;43.40;;;;;;4914944;28;45309;-61
2022/11/24 10:25:17;;;;;;;;;;;23.50;43.40;;;;;;4911277;28;45498;-63
2022/11/24 10:27:44;;;;;;;;;;;23.50;43.40;;;;;;4914454;28;45724;-61
2022/11/24 10:30:19;;;;;;;;;;;23.50;43.40;;;;;;4900281;28;45421;-62
2022/11/24 10:32:46;;;;;;;;;;;23.50;43.40;;;;;;4914016;28;45318;-62
2022/11/24 10:35:13;;;;;;;;;;;23.50;43.40;;;;;;4917858;28;45237;-60
2022/11/24 10:38:02;;;;;;;;;;;23.50;43.30;;;;;;4918337;28;46084;-61
2022/11/24 10:40:32;;;;;;;;;;;23.60;43.40;;;;;;4903716;28;45262;-62
2022/11/24 10:42:58;;;;;;;;;;;23.60;43.30;;;;;;4908296;28;45371;-59
2022/11/24 10:45:24;;;;;;;;;;;23.60;43.40;;;;;;4914836;28;45019;-61
2022/11/24 10:47:49;;;;;;;;;;;23.60;43.40;;;;;;4905163;28;47776;-60
2022/11/24 10:50:18;;;;;;;;;;;23.60;43.50;;;;;;4911223;28;45514;-62
2022/11/24 10:52:46;;;;;;;;;;;23.60;43.50;;;;;;4917443;28;45578;-61
2022/11/24 10:55:12;;;;;;;;;;;23.60;43.50;;;;;;4915084;28;45135;-62
2022/11/24 10:57:37;;;;;;;;;;;23.70;43.50;;;;;;4910972;28;45807;-64
2022/11/24 11:00:23;;;;;;;;;;;23.70;43.50;;;;;;4901967;28;45067;-62
2022/11/24 11:02:51;;;;;;;;;;;23.70;43.50;;;;;;4903155;28;45476;-60
2022/11/24 11:05:25;;;;;;;;;;;23.70;43.60;;;;;;4896373;28;46239;-58
2022/11/24 11:08:09;;;;;;;;;;;23.70;43.60;;;;;;4907036;28;45230;-57
2022/11/24 11:10:35;;;;;;;;;;;23.70;43.50;;;;;;4915293;28;45253;-60
2022/11/24 11:13:19;;;;;;;;;;;23.70;43.50;;;;;;4910414;28;45419;-61
2022/11/24 11:15:44;;;;;;;;;;;23.80;43.30;;;;;;4913727;28;44955;-58
2022/11/24 11:18:11;;;;;;;;;;;23.80;43.30;;;;;;4897061;28;47434;-63
2022/11/24 11:20:37;;;;;;;;;;;23.80;43.20;;;;;;4898220;28;45178;-61
2022/11/24 11:23:12;;;;;;;;;;;23.80;43.10;;;;;;4905264;28;45213;-60
2022/11/24 11:25:39;;;;;;;;;;;23.90;43.30;;;;;;4913853;28;44750;-61
2022/11/24 11:28:24;;;;;;;;;;;23.80;43.20;;;;;;4897500;28;46105;-60
2022/11/24 11:30:59;;;;;;;;;;;23.80;43.10;;;;;;4917469;28;45334;-61
2022/11/24 11:33:25;;;;;;;;;;;23.80;43.20;;;;;;4912442;28;45469;-61
2022/11/24 11:35:51;;;;;;;;;;;23.80;43.20;;;;;;4917829;28;44722;-61
2022/11/24 11:38:16;;;;;;;;;;;23.90;43.70;;;;;;4919334;28;46180;-61
2022/11/24 11:40:42;;;;;;;;;;;23.90;43.10;;;;;;4918906;28;45347;-61
2022/11/24 11:43:27;;;;;;;;;;;23.90;43.10;;;;;;4897467;28;46931;-60
2022/11/24 11:45:58;;;;;;;;;;;23.90;43.10;;;;;;4898336;28;45293;-60
2022/11/24 11:48:33;;;;;;;;;;;23.90;43.70;;;;;;4901519;28;46097;-59
2022/11/24 11:51:08;;;;;;;;;;;23.90;43.10;;;;;;4897986;28;45216;-62
2022/11/24 11:53:37;;;;;;;;;;;23.90;43.10;;;;;;4912858;28;44997;-60
2022/11/24 11:56:08;;;;;;;;;;;24.00;43.10;;;;;;4895200;28;45638;-61
2022/11/24 11:58:43;;;;;;;;;;;23.90;43.00;;;;;;4902999;28;46069;-59
2022/11/24 12:01:08;;;;;;;;;;;23.90;43.00;;;;;;4906438;28;45811;-62
2022/11/24 12:03:37;;;;;;;;;;;24.00;43.00;;;;;;4918447;28;45214;-59
2022/11/24 12:06:05;;;;;;;;;;;24.00;43.00;;;;;;4913570;28;45256;-62
2022/11/24 12:08:38;;;;;;;;;;;24.10;43.00;;;;;;4914381;28;45202;-60
2022/11/24 12:11:05;;;;;;;;;;;24.00;42.90;;;;;;4897221;28;45325;-61
2022/11/24 12:13:49;;;;;;;;;;;24.10;42.90;;;;;;4918793;28;45347;-59
2022/11/24 12:16:28;;;;;;;;;;;24.10;42.90;;;;;;4917399;28;45041;-63
2022/11/24 12:18:57;;;;;;;;;;;24.10;42.90;;;;;;4913125;28;46256;-60
2022/11/24 12:21:28;;;;;;;;;;;24.10;42.90;;;;;;4914073;28;45733;-60
2022/11/24 12:23:56;;;;;;;;;;;24.20;42.90;;;;;;4901171;28;44776;-59
2022/11/24 12:26:38;;;;;;;;;;;24.20;42.80;;;;;;4894824;28;45162;-60
2022/11/24 12:29:22;;;;;;;;;;;24.20;42.80;;;;;;4909258;28;46194;-63
2022/11/24 12:31:54;;;;;;;;;;;24.20;42.80;;;;;;4914811;28;44681;-58
2022/11/24 12:34:23;;;;;;;;;;;24.20;42.80;;;;;;4900338;28;45306;-61
2022/11/24 12:36:51;;;;;;;;;;;24.20;42.80;;;;;;4913774;28;45237;-62
2022/11/24 12:39:17;;;;;;;;;;;24.30;42.80;;;;;;4895806;28;46225;-58
2022/11/24 12:41:42;;;;;;;;;;;24.30;42.80;;;;;;4909584;28;45484;-62
2022/11/24 12:44:28;;;;;;;;;;;24.30;42.80;;;;;;4905537;28;45209;-66
2022/11/24 12:47:08;;;;;;;;;;;24.30;42.80;;;;;;4915398;28;45390;-58
2022/11/24 12:49:38;;;;;;;;;;;24.40;42.80;;;;;;4904067;28;46182;-60
2022/11/24 12:52:22;;;;;;;;;;;24.30;42.70;;;;;;4898192;28;45244;-62
2022/11/24 12:54:48;;;;;;;;;;;24.40;42.80;;;;;;4920180;28;45120;-62
2022/11/24 12:57:17;;;;;;;;;;;24.40;42.80;;;;;;4911196;28;45500;-60
2022/11/24 12:59:44;;;;;;;;;;;24.40;42.80;;;;;;4915881;28;45991;-63
2022/11/24 13:02:14;;;;;;;;;;;24.40;42.70;;;;;;4911572;28;45210;-61
2022/11/24 13:04:42;;;;;;;;;;;24.40;42.70;;;;;;4897654;28;45394;-62
2022/11/24 13:07:15;;;;;;;;;;;24.40;42.70;;;;;;4897019;28;45598;-63
2022/11/24 13:09:59;;;;;;;;;;;24.50;42.70;;;;;;4883658;28;47166;-62
2022/11/24 13:12:24;;;;;;;;;;;24.50;42.70;;;;;;4908971;28;44719;-62
2022/11/24 13:14:50;;;;;;;;;;;24.50;42.70;;;;;;4922079;28;45218;-61
2022/11/24 13:17:22;;;;;;;;;;;24.50;42.70;;;;;;4903926;28;45015;-61
2022/11/24 13:19:47;;;;;;;;;;;24.50;42.70;;;;;;4913388;28;45577;-61
2022/11/24 13:22:14;;;;;;;;;;;24.50;42.60;;;;;;4905274;28;45293;-61
2022/11/24 13:24:39;;;;;;;;;;;24.50;42.70;;;;;;4915626;28;45034;-60
2022/11/24 13:27:14;;;;;;;;;;;24.60;42.70;;;;;;4902329;28;45290;-62
2022/11/24 13:29:46;;;;;;;;;;;24.60;42.70;;;;;;4916745;28;46839;-62
2022/11/24 13:32:13;;;;;;;;;;;24.60;42.60;;;;;;4904149;28;45402;-61
2022/11/24 13:34:41;;;;;;;;;;;24.60;42.60;;;;;;4922570;28;45232;-58
2022/11/24 13:37:22;;;;;;;;;;;24.60;42.60;;;;;;4924217;28;45791;-59
2022/11/24 13:39:47;;;;;;;;;;;24.70;42.70;;;;;;4913575;28;46025;-62
2022/11/24 13:42:13;;;;;;;;;;;24.60;42.60;;;;;;4912955;28;45266;-61
2022/11/24 13:44:45;;;;;;;;;;;24.70;42.70;;;;;;4912806;28;45015;-60
2022/11/24 13:47:29;;;;;;;;;;;24.70;42.70;;;;;;4918132;28;45403;-61
2022/11/24 13:49:55;;;;;;;;;;;24.70;42.70;;;;;;4920347;28;46073;-63
2022/11/24 13:52:33;;;;;;;;;;;24.70;42.70;;;;;;4915119;28;45658;-62
2022/11/24 13:54:59;;;;;;;;;;;24.70;42.70;;;;;;4916942;28;45204;-61
2022/11/24 13:57:32;;;;;;;;;;;24.70;42.60;;;;;;4911779;28;45301;-62
2022/11/24 14:00:01;;;;;;;;;;;24.80;42.70;;;;;;4896749;28;45996;-64
2022/11/24 14:02:26;;;;;;;;;;;24.70;42.60;;;;;;4913196;28;45365;-59
2022/11/24 14:04:52;;;;;;;;;;;24.70;42.70;;;;;;4920576;28;45336;-59
2022/11/24 14:07:17;;;;;;;;;;;24.70;42.60;;;;;;4918333;28;45161;-62
2022/11/24 14:09:47;;;;;;;;;;;24.80;42.60;;;;;;4900496;28;46033;-61
2022/11/24 14:12:19;;;;;;;;;;;24.80;42.70;;;;;;4914521;28;45061;-61
2022/11/24 14:14:46;;;;;;;;;;;24.80;42.60;;;;;;4915732;28;45908;-62
2022/11/24 14:17:13;;;;;;;;;;;24.80;42.60;;;;;;4912702;28;46508;-60
2022/11/24 14:19:39;;;;;;;;;;;24.80;43.20;;;;;;4902228;28;46102;-61
2022/11/24 14:22:09;;;;;;;;;;;24.80;42.60;;;;;;4894716;28;45295;-59
2022/11/24 14:24:35;;;;;;;;;;;24.80;42.60;;;;;;4902095;28;45573;-60
2022/11/24 14:27:00;;;;;;;;;;;24.80;42.60;;;;;;4908066;28;45549;-62
2022/11/24 14:29:31;;;;;;;;;;;24.80;42.60;;;;;;4914141;28;46377;-60
2022/11/24 14:31:57;;;;;;;;;;;24.80;42.60;;;;;;4910286;28;46067;-59
2022/11/24 14:34:23;;;;;;;;;;;24.80;42.60;;;;;;4915127;28;46090;-61
2022/11/24 14:36:50;;;;;;;;;;;24.80;42.60;;;;;;4908574;28;46612;-60
2022/11/24 14:39:16;;;;;;;;;;;24.80;43.20;;;;;;4901065;28;46078;-60
2022/11/24 14:41:42;;;;;;;;;;;24.90;42.70;;;;;;4894696;28;45350;-62
2022/11/24 14:44:27;;;;;;;;;;;24.90;42.70;;;;;;4906912;28;45406;-61
2022/11/24 14:47:05;;;;;;;;;;;24.90;42.70;;;;;;4892690;28;46556;-63
2022/11/24 14:49:32;;;;;;;;;;;24.90;42.80;;;;;;4917840;28;46850;-62
2022/11/24 14:51:59;;;;;;;;;;;24.90;42.60;;;;;;4894753;28;44681;-62
2022/11/24 14:54:25;;;;;;;;;;;24.90;42.70;;;;;;4915663;28;45508;-63
2022/11/24 14:57:03;;;;;;;;;;;24.90;42.60;;;;;;4901860;28;45399;-62
2022/11/24 14:59:29;;;;;;;;;;;25.00;42.60;;;;;;4912447;28;45551;-63
2022/11/24 15:01:55;;;;;;;;;;;25.00;42.60;;;;;;4901828;28;45339;-63
2022/11/24 15:04:25;;;;;;;;;;;25.00;42.60;;;;;;4897876;28;45515;-63
2022/11/24 15:07:09;;;;;;;;;;;25.00;42.60;;;;;;4890871;28;44841;-62
2022/11/24 15:09:38;;;;;;;;;;;25.00;42.70;;;;;;4916175;28;45856;-62
2022/11/24 15:12:16;;;;;;;;;;;25.00;42.60;;;;;;4909798;28;45216;-62
2022/11/24 15:14:47;;;;;;;;;;;25.00;42.60;;;;;;4904201;28;45300;-58
2022/11/24 15:17:20;;;;;;;;;;;25.00;42.60;;;;;;4895292;28;45229;-62
2022/11/24 15:19:47;;;;;;;;;;;25.00;42.60;;;;;;4901099;28;46249;-61
2022/11/24 15:22:27;;;;;;;;;;;25.00;42.60;;;;;;4916953;28;45341;-62
2022/11/24 15:24:53;;;;;;;;;;;25.10;42.60;;;;;;4918226;28;44846;-60
2022/11/24 15:27:19;;;;;;;;;;;25.00;42.60;;;;;;4910627;28;44762;-63
2022/11/24 15:29:44;;;;;;;;;;;25.10;42.60;;;;;;4909635;28;46515;-61
2022/11/24 15:32:14;;;;;;;;;;;25.10;42.60;;;;;;4911086;28;46205;-62
2022/11/24 15:34:39;;;;;;;;;;;25.10;42.70;;;;;;4919947;28;45271;-62
2022/11/24 15:37:05;;;;;;;;;;;25.10;42.60;;;;;;4890989;28;45734;-63
2022/11/24 15:39:30;;;;;;;;;;;25.10;42.60;;;;;;4918378;28;46473;-60
2022/11/24 15:41:55;;;;;;;;;;;25.10;42.60;;;;;;4905656;28;44711;-63
2022/11/24 15:44:21;;;;;;;;;;;25.10;42.60;;;;;;4892863;28;45346;-63
2022/11/24 15:46:46;;;;;;;;;;;25.10;42.60;;;;;;4918564;28;45520;-61
2022/11/24 15:49:12;;;;;;;;;;;25.10;42.60;;;;;;4918828;28;47163;-58
2022/11/24 15:51:38;;;;;;;;;;;25.10;42.60;;;;;;4915573;28;45234;-63
2022/11/24 15:54:06;;;;;;;;;;;25.10;42.60;;;;;;4900457;28;45205;-58
2022/11/24 15:56:35;;;;;;;;;;;25.10;42.60;;;;;;4908859;28;44849;-61
2022/11/24 15:59:01;;;;;;;;;;;25.10;42.60;;;;;;4911739;28;46378;-61
2022/11/24 16:01:27;;;;;;;;;;;25.20;42.70;;;;;;4914082;28;45314;-60
2022/11/24 16:03:53;;;;;;;;;;;25.20;42.80;;;;;;4908521;28;44661;-62
2022/11/24 16:06:18;;;;;;;;;;;25.20;42.70;;;;;;4916860;28;44884;-61
2022/11/24 16:08:44;;;;;;;;;;;25.10;42.60;;;;;;4921682;28;45979;-58
2022/11/24 16:11:09;;;;;;;;;;;25.10;42.60;;;;;;4917737;28;45375;-62
2022/11/24 16:13:35;;;;;;;;;;;25.20;42.80;;;;;;4910334;28;45501;-62
2022/11/24 16:16:00;;;;;;;;;;;25.10;42.60;;;;;;4912089;28;45567;-63
2022/11/24 16:18:26;;;;;;;;;;;25.10;43.30;;;;;;4900395;28;46033;-61
2022/11/24 16:20:51;;;;;;;;;;;25.00;42.80;;;;;;4911694;28;45735;-63
2022/11/24 16:23:17;;;;;;;;;;;24.80;42.90;;;;;;4910243;28;45212;-62
2022/11/24 16:25:42;;;;;;;;;;;24.80;43.20;;;;;;4909839;28;45463;-63
2022/11/24 16:28:08;;;;;;;;;;;24.60;43.30;;;;;;4908413;28;45919;-61
2022/11/24 16:30:34;;;;;;;;;;;24.50;43.50;;;;;;4907722;28;45246;-62
2022/11/24 16:33:01;;;;;;;;;;;24.40;43.70;;;;;;4906559;28;45499;-62
2022/11/24 16:35:27;;;;;;;;;;;24.30;43.90;;;;;;4913120;28;45186;-60
2022/11/24 16:37:52;;;;;;;;;;;24.20;43.90;;;;;;4912486;28;45830;-62
2022/11/24 16:40:18;;;;;;;;;;;24.20;44.10;;;;;;4913700;28;45473;-63
2022/11/24 16:42:43;;;;;;;;;;;24.10;44.30;;;;;;4914003;28;45252;-62
2022/11/24 16:45:09;;;;;;;;;;;24.00;44.40;;;;;;4906068;28;45291;-61
2022/11/24 16:47:39;;;;;;;;;;;23.90;44.50;;;;;;4895229;28;47309;-60
2022/11/24 16:50:05;;;;;;;;;;;23.80;44.50;;;;;;4909729;28;45236;-62
2022/11/24 16:52:31;;;;;;;;;;;23.70;44.60;;;;;;4901580;28;45375;-62
2022/11/24 16:54:57;;;;;;;;;;;23.70;44.80;;;;;;4910903;28;45437;-61
2022/11/24 16:57:23;;;;;;;;;;;23.60;44.70;;;;;;4914257;28;46309;-63
2022/11/24 16:59:49;;;;;;;;;;;23.60;44.80;;;;;;4911642;28;45584;-61
2022/11/24 17:02:14;;;;;;;;;;;23.50;44.90;;;;;;4902420;28;45269;-62
2022/11/24 17:04:40;;;;;;;;;;;23.50;45.00;;;;;;4913922;28;45222;-61
2022/11/24 17:07:06;;;;;;;;;;;23.40;45.10;;;;;;4917573;28;46018;-62
2022/11/24 17:09:32;;;;;;;;;;;23.30;45.10;;;;;;4906994;28;44642;-64
2022/11/24 17:11:58;;;;;;;;;;;23.30;45.20;;;;;;4883670;28;45126;-60
2022/11/24 17:14:24;;;;;;;;;;;23.20;45.30;;;;;;4911805;28;46264;-61
2022/11/24 17:16:50;;;;;;;;;;;23.20;45.50;;;;;;4914096;28;45229;-61
2022/11/24 17:19:17;;;;;;;;;;;23.10;45.50;;;;;;4894588;28;45292;-62
2022/11/24 17:21:44;;;;;;;;;;;23.10;45.60;;;;;;4911759;28;45663;-61
2022/11/24 17:24:16;;;;;;;;;;;23.00;45.70;;;;;;4911574;28;45408;-61
2022/11/24 17:26:43;;;;;;;;;;;22.90;45.70;;;;;;4909919;28;45269;-59
2022/11/24 17:29:10;;;;;;;;;;;22.90;45.80;;;;;;4894864;28;46004;-62
2022/11/24 17:31:39;;;;;;;;;;;22.80;45.80;;;;;;4915658;28;45365;-61
2022/11/24 17:34:05;;;;;;;;;;;22.70;46.00;;;;;;4911790;28;45676;-61
2022/11/24 17:36:31;;;;;;;;;;;22.70;46.10;;;;;;4910357;28;45487;-61
2022/11/24 17:38:58;;;;;;;;;;;22.60;46.10;;;;;;4903765;28;44973;-61
2022/11/24 17:41:26;;;;;;;;;;;22.60;46.20;;;;;;4900297;28;45369;-61
2022/11/24 17:43:54;;;;;;;;;;;22.50;46.20;;;;;;4897530;28;45431;-61
2022/11/24 17:46:20;;;;;;;;;;;22.50;46.30;;;;;;4912647;28;45668;-61
2022/11/24 17:48:46;;;;;;;;;;;22.40;46.20;;;;;;4915892;28;45503;-59
2022/11/24 17:51:17;;;;;;;;;;;22.40;46.30;;;;;;4898309;28;45053;-60
2022/11/24 17:53:43;;;;;;;;;;;22.30;46.40;;;;;;4911115;28;45264;-60
2022/11/24 17:56:11;;;;;;;;;;;22.30;46.50;;;;;;4913517;28;46112;-61
2022/11/24 17:58:36;;;;;;;;;;;22.20;46.50;;;;;;4908220;28;45115;-61
2022/11/24 18:01:04;;;;;;;;;;;22.20;46.60;;;;;;4910787;28;45313;-60
2022/11/24 18:03:31;;;;;;;;;;;22.20;46.70;;;;;;4908731;28;45303;-61
2022/11/24 18:05:57;;;;;;;;;;;22.10;46.80;;;;;;4912308;28;45024;-61
2022/11/24 18:08:23;;;;;;;;;;;22.00;46.90;;;;;;4893264;28;45106;-58
2022/11/24 18:10:50;;;;;;;;;;;21.90;47.60;;;;;;4912978;28;44652;-61
2022/11/24 18:13:16;;;;;;;;;;;21.90;47.20;;;;;;4917343;28;44770;-61
2022/11/24 18:15:43;;;;;;;;;;;21.90;47.30;;;;;;4912053;28;45300;-66
2022/11/24 18:18:10;;;;;;;;;;;21.80;47.20;;;;;;4912248;28;45274;-61
2022/11/24 18:20:37;;;;;;;;;;;21.80;47.30;;;;;;4910181;28;46813;-61
2022/11/24 18:23:04;;;;;;;;;;;21.70;47.20;;;;;;4917275;28;45777;-61
2022/11/24 18:25:32;;;;;;;;;;;21.70;47.30;;;;;;4907097;28;45544;-62